Time;durP1;ratioP1;P1;durP2;ratioP2;P2;SDS_P1;SDS_P2;PMS_P1;PMS_P2;Temp;Humidity;BMP_temperature;BMP_pressure;BME280_temperature;BME280_humidity;BME280_pressure;Samples;Min_cycle;Max_cycle;Signal;HPM_P1;HPM_P2
2023/09/08 00:01:47;;;;;;;6.20;5.70;;;;;;;21.20;68.46;101041.09;4979064;28;20206;-77
2023/09/08 00:04:14;;;;;;;5.90;5.40;;;;;;;21.16;68.83;101042.19;4993878;28;20627;-79
2023/09/08 00:06:41;;;;;;;5.23;4.83;;;;;;;21.12;68.91;101028.22;4996628;28;20546;-79
2023/09/08 00:09:09;;;;;;;6.40;5.40;;;;;;;21.06;68.98;101035.66;4994329;28;20211;-78
2023/09/08 00:11:35;;;;;;;6.07;5.47;;;;;;;21.00;69.02;101028.88;4994262;28;20203;-78
2023/09/08 00:14:03;;;;;;;6.97;5.23;;;;;;;20.98;68.96;101025.44;4993883;28;20235;-78
2023/09/08 00:16:30;;;;;;;5.97;5.57;;;;;;;20.89;69.21;101023.28;4996267;28;20624;-78
2023/09/08 00:18:58;;;;;;;5.90;5.40;;;;;;;20.85;69.72;101011.09;4991577;28;20694;-77
2023/09/08 00:21:25;;;;;;;6.10;5.60;;;;;;;20.82;69.17;101012.13;5002699;28;20203;-77
2023/09/08 00:23:51;;;;;;;6.07;5.67;;;;;;;20.81;69.32;101016.59;5007525;28;20226;-77
2023/09/08 00:26:19;;;;;;;5.43;5.00;;;;;;;20.75;69.50;101011.63;5014787;28;20214;-77
2023/09/08 00:28:46;;;;;;;6.30;5.77;;;;;;;20.67;69.99;101008.47;5020419;28;20668;-77
2023/09/08 00:31:12;;;;;;;5.70;5.20;;;;;;;20.66;70.03;101003.28;5014072;28;20241;-78
2023/09/08 00:33:39;;;;;;;6.77;6.23;;;;;;;20.57;70.38;101008.09;5012634;28;20223;-78
2023/09/08 00:36:05;;;;;;;5.27;4.87;;;;;;;20.54;70.70;100994.13;5014282;28;20594;-78
2023/09/08 00:38:32;;;;;;;7.20;5.90;;;;;;;20.57;70.39;100991.28;5013884;28;20217;-77
2023/09/08 00:41:00;;;;;;;5.90;5.37;;;;;;;20.59;70.45;100987.69;5014858;28;20205;-79
2023/09/08 00:43:28;;;;;;;5.67;5.23;;;;;;;20.58;70.72;100983.25;5013056;28;20265;-78
2023/09/08 00:45:58;;;;;;;5.37;5.00;;;;;;;20.57;70.82;100986.00;5013990;28;20215;-78
2023/09/08 00:48:25;;;;;;;5.77;5.37;;;;;;;20.45;71.96;100955.66;5012965;28;20265;-78
2023/09/08 00:50:51;;;;;;;5.73;5.23;;;;;;;20.43;71.92;100954.88;5013476;28;20229;-78
2023/09/08 00:53:18;;;;;;;6.60;5.90;;;;;;;20.40;71.75;100955.91;5013150;28;20361;-78
2023/09/08 00:55:45;;;;;;;5.40;5.00;;;;;;;20.29;72.01;100952.09;5014067;28;20212;-77
2023/09/08 00:58:13;;;;;;;5.47;5.07;;;;;;;20.18;72.38;100940.25;5013478;28;20345;-77
2023/09/08 01:00:40;;;;;;;7.73;5.30;;;;;;;20.16;72.52;100934.16;5013662;28;20242;-79
2023/09/08 01:03:07;;;;;;;7.17;6.07;;;;;;;20.17;71.97;100942.97;5012273;28;20597;-79
2023/09/08 01:05:33;;;;;;;4.60;4.33;;;;;;;20.14;72.27;100941.34;5013876;28;20215;-78
2023/09/08 01:08:01;;;;;;;5.77;5.30;;;;;;;20.08;72.36;100938.13;5013164;28;20206;-78
2023/09/08 01:10:28;;;;;;;5.30;4.90;;;;;;;20.02;72.34;100944.63;5012693;28;20222;-78
2023/09/08 01:12:54;;;;;;;5.73;5.17;;;;;;;19.96;72.38;100942.25;5012517;28;20227;-77
2023/09/08 01:15:21;;;;;;;5.40;5.00;;;;;;;19.86;73.22;100933.03;5013290;28;20552;-78
2023/09/08 01:17:49;;;;;;;6.30;5.77;;;;;;;19.86;73.43;100925.09;5012985;28;20207;-77
2023/09/08 01:20:21;;;;;;;5.43;5.03;;;;;;;19.76;73.55;100907.03;5012938;28;20565;-77
2023/09/08 01:23:07;;;;;;;5.80;5.40;;;;;;;19.72;73.13;100913.41;5012899;28;20280;-78
2023/09/08 01:25:39;;;;;;;5.73;5.33;;;;;;;19.63;73.46;100912.03;5012821;28;20279;-77
2023/09/08 01:28:08;;;;;;;6.07;5.67;;;;;;;19.53;73.77;100904.63;5013009;28;20203;-77
2023/09/08 01:30:36;;;;;;;5.60;5.20;;;;;;;19.51;73.90;100890.59;5013152;28;20231;-77
2023/09/08 01:33:02;;;;;;;5.47;5.07;;;;;;;19.44;73.71;100890.91;5013534;28;20227;-77
2023/09/08 01:35:29;;;;;;;5.93;5.53;;;;;;;19.41;74.07;100893.69;5016774;28;20206;-77
2023/09/08 01:37:56;;;;;;;5.50;5.10;;;;;;;19.36;74.14;100889.53;5016709;28;20214;-77
2023/09/08 01:40:22;;;;;;;6.00;5.40;;;;;;;19.36;74.04;100887.75;5016556;28;20203;-78
2023/09/08 01:42:51;;;;;;;6.00;5.50;;;;;;;19.33;74.34;100879.97;5016507;28;20485;-77
2023/09/08 01:45:17;;;;;;;5.87;5.47;;;;;;;19.33;74.88;100879.97;5015977;28;20218;-78
2023/09/08 01:47:44;;;;;;;5.77;5.33;;;;;;;19.31;75.13;100873.06;5015416;28;20587;-78
2023/09/08 01:50:10;;;;;;;5.47;5.07;;;;;;;19.34;74.91;100868.44;5015266;28;20808;-78
2023/09/08 01:52:37;;;;;;;5.87;5.47;;;;;;;19.31;74.45;100876.53;5015051;28;20234;-77
2023/09/08 01:55:04;;;;;;;5.53;5.13;;;;;;;19.21;74.67;100867.34;5015218;28;20229;-77
2023/09/08 01:57:30;;;;;;;5.70;5.23;;;;;;;19.22;75.22;100863.75;5015988;28;20238;-77
2023/09/08 01:59:58;;;;;;;6.00;5.50;;;;;;;19.22;75.46;100851.34;5015722;28;20206;-77
2023/09/08 02:02:24;;;;;;;5.50;5.20;;;;;;;19.24;75.06;100849.50;5015531;28;20233;-78
2023/09/08 02:04:51;;;;;;;5.80;5.30;;;;;;;19.18;75.12;100855.09;5014830;28;20203;-77
2023/09/08 02:07:17;;;;;;;5.80;5.27;;;;;;;19.11;75.37;100858.09;5015100;28;20207;-77
2023/09/08 02:09:44;;;;;;;5.80;5.40;;;;;;;19.11;75.14;100860.75;5014938;28;20609;-78
2023/09/08 02:12:10;;;;;;;6.07;5.67;;;;;;;19.04;75.43;100861.03;5014561;28;20211;-77
2023/09/08 02:14:37;;;;;;;5.80;5.40;;;;;;;18.99;75.79;100854.28;5014977;28;20218;-78
2023/09/08 02:17:06;;;;;;;5.53;5.23;;;;;;;18.99;75.27;100855.13;5014796;28;20207;-78
2023/09/08 02:19:32;;;;;;;6.40;5.17;;;;;;;18.97;75.78;100845.56;5014650;28;20211;-77
2023/09/08 02:21:59;;;;;;;6.00;5.60;;;;;;;18.97;75.61;100850.84;5015358;28;20206;-77
2023/09/08 02:24:25;;;;;;;5.70;5.30;;;;;;;18.89;75.64;100856.50;5015088;28;20223;-77
2023/09/08 02:26:51;;;;;;;6.10;5.50;;;;;;;18.91;76.03;100857.28;5015315;28;20261;-77
2023/09/08 02:29:18;;;;;;;6.00;5.60;;;;;;;18.86;76.08;100846.03;5015046;28;20597;-77
2023/09/08 02:31:45;;;;;;;6.10;5.70;;;;;;;18.88;76.32;100838.91;5014780;28;20237;-77
2023/09/08 02:34:13;;;;;;;5.67;5.27;;;;;;;18.74;76.88;100836.88;5013824;28;20786;-76
2023/09/08 02:36:39;;;;;;;5.93;5.53;;;;;;;18.79;76.60;100826.97;5015375;28;20234;-77
2023/09/08 02:39:06;;;;;;;5.97;5.57;;;;;;;18.80;77.29;100823.38;5014641;28;20209;-77
2023/09/08 02:41:33;;;;;;;6.67;6.07;;;;;;;18.76;78.00;100797.13;5014652;28;20210;-77
2023/09/08 02:44:00;;;;;;;6.47;5.97;;;;;;;18.77;77.96;100790.88;5015051;28;20235;-76
2023/09/08 02:46:26;;;;;;;6.27;5.67;;;;;;;18.77;77.38;100794.41;5014909;28;20207;-77
2023/09/08 02:48:53;;;;;;;6.50;5.90;;;;;;;18.66;77.69;100799.34;5014002;28;20218;-77
2023/09/08 02:51:21;;;;;;;6.83;6.17;;;;;;;18.68;77.42;100804.56;5014961;28;20261;-77
2023/09/08 02:53:47;;;;;;;6.60;6.10;;;;;;;18.62;78.20;100790.69;5013840;28;20234;-77
2023/09/08 02:56:14;;;;;;;6.03;5.63;;;;;;;18.62;78.41;100792.50;5014141;28;20218;-78
2023/09/08 02:58:40;;;;;;;6.43;5.70;;;;;;;18.61;78.44;100791.63;5014461;28;20236;-77
2023/09/08 03:01:11;;;;;;;6.40;5.80;;;;;;;18.61;78.02;100790.75;5014485;28;20579;-78
2023/09/08 03:03:38;;;;;;;6.60;6.10;;;;;;;18.59;77.77;100811.13;5013366;28;20330;-78
2023/09/08 03:06:04;;;;;;;6.97;6.40;;;;;;;18.63;77.82;100808.28;5014028;28;20700;-78
2023/09/08 03:08:32;;;;;;;6.60;6.00;;;;;;;18.63;77.49;100810.94;5013498;28;20213;-77
2023/09/08 03:10:59;;;;;;;6.47;6.07;;;;;;;18.62;78.01;100805.72;5013722;28;20249;-78
2023/09/08 03:13:26;;;;;;;6.60;6.10;;;;;;;18.57;78.83;100795.34;5013074;28;20728;-78
2023/09/08 03:15:52;;;;;;;7.07;6.50;;;;;;;18.57;78.94;100781.25;5013610;28;20237;-78
2023/09/08 03:18:19;;;;;;;6.47;5.97;;;;;;;18.55;78.04;100794.56;5013927;28;20210;-77
2023/09/08 03:20:49;;;;;;;5.77;5.37;;;;;;;18.57;77.90;100800.66;5014952;28;20400;-77
2023/09/08 03:23:15;;;;;;;6.30;5.80;;;;;;;18.51;77.82;100808.84;5013806;28;20817;-77
2023/09/08 03:25:43;;;;;;;6.67;5.77;;;;;;;18.50;78.10;100803.63;5013986;28;20680;-77
2023/09/08 03:28:10;;;;;;;5.90;5.37;;;;;;;18.50;77.61;100804.50;5013686;28;20214;-78
2023/09/08 03:30:36;;;;;;;6.03;5.53;;;;;;;18.44;77.33;100802.97;5014064;28;20823;-77
2023/09/08 03:33:03;;;;;;;7.47;5.80;;;;;;;18.39;77.69;100812.03;5012965;28;20234;-77
2023/09/08 03:35:30;;;;;;;5.97;5.57;;;;;;;18.27;78.38;100802.88;5014136;28;20211;-79
2023/09/08 03:37:56;;;;;;;5.83;5.43;;;;;;;18.25;78.36;100795.06;5014905;28;20211;-78
2023/09/08 03:40:22;;;;;;;6.13;5.70;;;;;;;18.24;78.37;100790.69;5013053;28;20221;-77
2023/09/08 03:42:50;;;;;;;6.33;5.83;;;;;;;18.25;78.74;100792.41;5012488;28;20245;-78
2023/09/08 03:45:17;;;;;;;6.17;5.77;;;;;;;18.28;79.10;100780.84;5013401;28;20568;-78
2023/09/08 03:47:43;;;;;;;6.17;5.57;;;;;;;18.28;80.38;100764.13;5013309;28;20220;-77
2023/09/08 03:50:10;;;;;;;6.00;5.50;;;;;;;18.33;81.14;100740.97;5012727;28;20207;-78
2023/09/08 03:52:37;;;;;;;5.63;5.23;;;;;;;18.36;80.22;100754.91;5013201;28;20284;-77
2023/09/08 03:55:04;;;;;;;6.57;5.53;;;;;;;18.38;79.75;100753.03;5012430;28;20214;-78
2023/09/08 03:57:30;;;;;;;7.17;5.73;;;;;;;18.46;79.36;100771.19;5012581;28;20210;-78
2023/09/08 03:59:58;;;;;;;5.90;5.50;;;;;;;18.50;79.27;100771.91;5013088;28;20210;-78
2023/09/08 04:02:24;;;;;;;6.13;5.73;;;;;;;18.41;78.35;100800.50;5012448;28;20230;-77
2023/09/08 04:04:51;;;;;;;6.27;5.87;;;;;;;18.34;78.51;100795.56;5012416;28;20593;-77
2023/09/08 04:07:17;;;;;;;6.30;5.70;;;;;;;18.28;78.28;100801.97;5012558;28;20206;-78
2023/09/08 04:09:44;;;;;;;6.37;5.97;;;;;;;18.25;78.74;100791.53;5012692;28;20221;-77
2023/09/08 04:12:11;;;;;;;5.83;5.43;;;;;;;18.21;78.83;100800.53;5012603;28;20238;-78
2023/09/08 04:14:37;;;;;;;6.17;5.53;;;;;;;18.18;79.51;100780.38;4998851;28;20757;-77
2023/09/08 04:17:05;;;;;;;6.27;5.77;;;;;;;18.13;80.15;100765.66;4993530;28;20218;-78
2023/09/08 04:19:32;;;;;;;6.20;5.80;;;;;;;18.10;79.83;100768.47;4992501;28;20298;-77
2023/09/08 04:21:58;;;;;;;5.80;5.40;;;;;;;18.14;79.83;100768.25;4992870;28;20677;-77
2023/09/08 04:24:25;;;;;;;5.77;5.37;;;;;;;18.14;79.40;100778.81;4992460;28;20215;-78
2023/09/08 04:26:51;;;;;;;6.00;5.50;;;;;;;18.10;79.21;100779.03;4992995;28;20207;-77
2023/09/08 04:29:17;;;;;;;6.23;5.73;;;;;;;18.04;79.87;100777.50;4988098;28;20203;-77
2023/09/08 04:31:44;;;;;;;6.77;6.23;;;;;;;18.04;80.16;100769.59;4992397;28;20228;-77
2023/09/08 04:34:11;;;;;;;7.60;6.27;;;;;;;18.01;79.84;100772.34;4992165;28;20234;-77
2023/09/08 04:36:38;;;;;;;7.03;6.47;;;;;;;17.94;80.22;100763.84;4992410;28;20207;-76
2023/09/08 04:39:05;;;;;;;6.57;6.07;;;;;;;17.94;80.71;100758.56;4994419;28;20472;-78
2023/09/08 04:41:31;;;;;;;6.27;5.77;;;;;;;17.92;80.91;100749.88;4993459;28;20673;-78
2023/09/08 04:43:58;;;;;;;6.27;5.77;;;;;;;17.95;80.34;100749.72;4975358;28;20589;-78
2023/09/08 04:46:24;;;;;;;6.43;5.93;;;;;;;17.98;80.66;100751.38;4973761;28;20216;-77
2023/09/08 04:48:51;;;;;;;5.83;5.43;;;;;;;17.91;80.92;100745.50;4985204;28;20203;-77
2023/09/08 04:51:18;;;;;;;6.53;6.00;;;;;;;17.81;81.42;100741.50;4992458;28;20232;-77
2023/09/08 04:53:45;;;;;;;6.53;6.10;;;;;;;17.75;81.93;100728.59;4997995;28;20279;-78
2023/09/08 04:56:13;;;;;;;5.90;5.50;;;;;;;17.79;81.81;100725.72;4974095;28;20663;-78
2023/09/08 04:58:39;;;;;;;5.80;5.30;;;;;;;17.77;82.19;100718.81;4974577;28;20215;-77
2023/09/08 05:01:06;;;;;;;6.43;5.87;;;;;;;17.84;81.69;100725.59;4987306;28;20200;-77
2023/09/08 05:03:32;;;;;;;6.03;5.53;;;;;;;17.87;81.77;100728.06;4995749;28;20223;-77
2023/09/08 05:06:01;;;;;;;6.40;6.00;;;;;;;17.88;82.18;100727.16;4974252;28;20211;-77
2023/09/08 05:08:28;;;;;;;6.53;6.13;;;;;;;17.90;82.27;100730.59;4976956;28;20216;-76
2023/09/08 05:10:55;;;;;;;6.17;5.77;;;;;;;17.84;82.92;100721.16;4989027;28;20203;-77
2023/09/08 05:13:26;;;;;;;9.13;5.63;;;;;;;17.90;82.56;100714.75;4996648;28;20313;-77
2023/09/08 05:15:59;;;;;;;6.73;6.23;;;;;;;17.94;82.12;100728.63;4996467;28;20286;-77
2023/09/08 05:18:26;;;;;;;7.37;6.77;;;;;;;17.97;81.70;100731.16;4996058;28;20972;-77
2023/09/08 05:20:52;;;;;;;7.03;6.50;;;;;;;17.97;81.92;100731.16;4989344;28;20202;-78
2023/09/08 05:23:19;;;;;;;6.93;6.43;;;;;;;17.95;81.40;100738.28;4996616;28;20238;-77
2023/09/08 05:25:47;;;;;;;6.20;5.80;;;;;;;17.95;81.87;100735.66;5001670;28;20297;-77
2023/09/08 05:28:13;;;;;;;6.63;6.23;;;;;;;18.01;81.91;100727.44;4976325;28;20260;-77
2023/09/08 05:30:40;;;;;;;6.20;5.73;;;;;;;18.02;82.39;100729.19;4994123;28;20215;-77
2023/09/08 05:33:07;;;;;;;6.60;6.10;;;;;;;18.06;82.80;100718.38;5000388;28;20723;-78
2023/09/08 05:35:33;;;;;;;7.00;6.50;;;;;;;18.10;83.78;100699.78;4981684;28;20635;-78
2023/09/08 05:38:00;;;;;;;6.43;5.93;;;;;;;18.15;84.73;100684.53;4976200;28;20811;-78
2023/09/08 05:40:26;;;;;;;6.57;6.07;;;;;;;18.16;85.42;100673.06;4992038;28;20217;-77
2023/09/08 05:42:54;;;;;;;6.80;6.10;;;;;;;18.19;85.18;100668.47;4994851;28;20223;-78
2023/09/08 05:45:21;;;;;;;6.40;5.97;;;;;;;18.26;85.00;100663.78;4996211;28;20214;-78
2023/09/08 05:47:49;;;;;;;7.17;6.47;;;;;;;18.31;84.61;100672.31;4996345;28;20211;-78
2023/09/08 05:50:15;;;;;;;6.50;6.10;;;;;;;18.31;85.58;100674.97;4995332;28;20204;-78
2023/09/08 05:52:42;;;;;;;6.13;5.73;;;;;;;18.37;85.43;100663.25;5001891;28;20238;-77
2023/09/08 05:55:08;;;;;;;6.73;6.17;;;;;;;18.42;85.15;100669.19;4989695;28;20208;-77
2023/09/08 05:57:35;;;;;;;6.30;5.80;;;;;;;18.44;85.80;100662.03;4995804;28;20292;-77
2023/09/08 06:00:04;;;;;;;6.10;5.70;;;;;;;18.36;86.10;100659.75;4995829;28;20258;-77
2023/09/08 06:02:30;;;;;;;7.00;6.07;;;;;;;18.42;86.32;100645.41;4995626;28;20228;-77
2023/09/08 06:04:57;;;;;;;6.70;6.20;;;;;;;18.45;86.55;100647.88;4995184;28;20583;-76
2023/09/08 06:07:23;;;;;;;6.53;5.93;;;;;;;18.46;87.42;100631.09;4996350;28;20390;-78
2023/09/08 06:09:50;;;;;;;5.90;5.50;;;;;;;18.44;87.38;100632.97;4995885;28;20203;-78
2023/09/08 06:12:16;;;;;;;6.33;5.80;;;;;;;18.43;87.22;100639.16;4995854;28;20243;-78
2023/09/08 06:14:43;;;;;;;6.03;5.60;;;;;;;18.46;87.32;100628.44;4994793;28;20214;-77
2023/09/08 06:17:11;;;;;;;6.23;5.73;;;;;;;18.51;87.29;100638.78;4996227;28;20207;-78
2023/09/08 06:19:37;;;;;;;7.57;6.10;;;;;;;18.58;86.92;100640.22;4996425;28;20210;-78
2023/09/08 06:22:04;;;;;;;6.43;5.93;;;;;;;18.64;87.05;100647.84;4995568;28;20207;-78
2023/09/08 06:24:30;;;;;;;6.47;5.97;;;;;;;18.61;87.32;100645.34;4995401;28;20226;-77
2023/09/08 06:26:57;;;;;;;7.00;6.50;;;;;;;18.68;87.35;100636.19;4987262;28;20664;-78
2023/09/08 06:29:23;;;;;;;6.53;6.07;;;;;;;18.71;87.25;100645.75;4995800;28;20212;-79
2023/09/08 06:31:50;;;;;;;6.87;6.37;;;;;;;18.72;87.06;100650.97;4994455;28;20726;-77
2023/09/08 06:34:21;;;;;;;7.83;6.47;;;;;;;18.84;86.63;100654.81;4993962;28;20266;-76
2023/09/08 06:36:47;;;;;;;7.00;6.40;;;;;;;18.87;86.71;100659.97;4994268;28;20215;-76
2023/09/08 06:39:14;;;;;;;6.97;6.37;;;;;;;18.86;86.52;100668.81;4996847;28;20208;-76
2023/09/08 06:41:40;;;;;;;6.30;5.80;;;;;;;18.85;86.32;100672.41;4991550;28;20214;-76
2023/09/08 06:44:07;;;;;;;6.63;6.13;;;;;;;18.81;87.01;100669.06;4993833;28;20253;-76
2023/09/08 06:46:33;;;;;;;6.77;6.20;;;;;;;18.84;87.40;100663.59;4994373;28;20289;-76
2023/09/08 06:49:00;;;;;;;7.07;6.40;;;;;;;18.83;87.60;100655.75;4993743;28;20210;-76
2023/09/08 06:51:28;;;;;;;7.30;6.80;;;;;;;18.84;87.89;100657.47;4994050;28;20682;-76
2023/09/08 06:53:59;;;;;;;6.20;5.70;;;;;;;18.84;88.33;100654.81;4998990;28;20258;-76
2023/09/08 06:56:26;;;;;;;6.67;6.17;;;;;;;18.87;88.43;100648.50;4999035;28;20287;-77
2023/09/08 06:58:53;;;;;;;9.13;8.30;;;;;;;18.87;88.55;100654.69;4993998;28;20203;-77
2023/09/08 07:01:19;;;;;;;10.57;9.57;;;;;;;18.97;89.70;100628.63;4994279;28;20222;-77
2023/09/08 07:03:46;;;;;;;10.40;9.60;;;;;;;19.08;89.78;100622.75;4993683;28;20782;-77
2023/09/08 07:06:12;;;;;;;9.47;8.77;;;;;;;19.15;90.21;100621.53;4994142;28;20210;-77
2023/09/08 07:08:40;;;;;;;9.43;8.63;;;;;;;19.22;89.35;100631.69;4993617;28;20700;-76
2023/09/08 07:11:07;;;;;;;8.50;7.73;;;;;;;19.33;89.72;100638.25;4997951;28;20207;-77
2023/09/08 07:13:33;;;;;;;9.47;8.80;;;;;;;19.30;89.50;100644.53;4988747;28;20733;-77
2023/09/08 07:16:00;;;;;;;9.30;8.60;;;;;;;19.32;89.86;100641.81;4994332;28;20661;-77
2023/09/08 07:18:26;;;;;;;9.80;9.00;;;;;;;19.47;88.43;100659.53;4994092;28;20629;-77
2023/09/08 07:20:53;;;;;;;8.93;8.13;;;;;;;19.58;87.53;100680.16;4994637;28;20590;-77
2023/09/08 07:23:20;;;;;;;9.07;8.47;;;;;;;19.65;86.51;100702.72;4993044;28;20231;-76
2023/09/08 07:25:49;;;;;;;9.50;8.67;;;;;;;19.79;86.60;100715.28;4993194;28;20214;-76
2023/09/08 07:28:15;;;;;;;9.07;8.03;;;;;;;19.87;86.77;100715.72;4997854;28;20204;-79
2023/09/08 07:30:42;;;;;;;8.47;7.97;;;;;;;19.94;86.47;100721.53;4996811;28;20218;-79
2023/09/08 07:33:08;;;;;;;8.27;7.67;;;;;;;19.98;87.02;100709.84;4996399;28;20238;-78
2023/09/08 07:35:37;;;;;;;8.67;7.97;;;;;;;20.06;88.27;100693.53;4996407;28;20219;-79
2023/09/08 07:38:04;;;;;;;9.20;8.50;;;;;;;20.08;88.68;100683.69;4986723;28;20207;-77
2023/09/08 07:40:30;;;;;;;8.23;7.40;;;;;;;20.07;88.88;100671.41;4993431;28;20263;-77
2023/09/08 07:42:58;;;;;;;7.60;7.00;;;;;;;20.05;89.98;100663.53;4992638;28;20241;-76
2023/09/08 07:45:25;;;;;;;8.13;7.43;;;;;;;20.06;90.95;100635.22;4993174;28;20207;-77
2023/09/08 07:47:52;;;;;;;7.50;6.87;;;;;;;19.95;92.39;100609.34;4993109;28;20215;-76
2023/09/08 07:50:21;;;;;;;8.80;7.13;;;;;;;19.94;93.67;100597.00;4992638;28;20208;-76
2023/09/08 07:52:48;;;;;;;9.93;7.17;;;;;;;19.95;93.55;100588.13;4992531;28;20238;-77
2023/09/08 07:55:14;;;;;;;7.10;6.50;;;;;;;19.96;94.60;100568.63;4992347;28;20204;-76
2023/09/08 07:57:42;;;;;;;6.80;6.30;;;;;;;19.95;93.44;100573.09;4992726;28;20207;-77
2023/09/08 08:00:11;;;;;;;7.10;6.50;;;;;;;20.06;91.51;100608.72;4993071;28;20211;-77
2023/09/08 08:02:38;;;;;;;7.07;6.47;;;;;;;20.14;92.61;100599.41;4992664;28;20829;-77
2023/09/08 08:05:06;;;;;;;7.30;6.80;;;;;;;20.23;91.34;100620.09;4984545;28;20677;-77
2023/09/08 08:07:33;;;;;;;6.87;6.17;;;;;;;20.30;91.21;100635.66;4993246;28;20238;-77
2023/09/08 08:09:59;;;;;;;7.20;6.70;;;;;;;20.47;89.74;100653.25;4993127;28;20211;-78
2023/09/08 08:12:26;;;;;;;6.90;6.40;;;;;;;20.56;85.30;100701.34;4993047;28;20258;-77
2023/09/08 08:14:52;;;;;;;6.37;5.93;;;;;;;20.74;87.66;100714.53;4993042;28;20586;-77
2023/09/08 08:17:20;;;;;;;6.33;5.73;;;;;;;20.85;89.13;100695.34;4993266;28;20207;-78
2023/09/08 08:19:47;;;;;;;6.77;6.17;;;;;;;20.90;85.08;100741.03;4992955;28;20594;-77
2023/09/08 08:22:13;;;;;;;9.10;6.57;;;;;;;21.00;84.02;100763.47;4993156;28;20202;-78
2023/09/08 08:24:40;;;;;;;7.37;6.77;;;;;;;21.17;80.19;100827.06;4993296;28;20208;-78
2023/09/08 08:27:06;;;;;;;6.30;5.90;;;;;;;21.32;83.86;100811.19;4993516;28;20207;-77
2023/09/08 08:29:33;;;;;;;7.37;6.60;;;;;;;21.42;82.12;100842.41;4993085;28;20230;-77
2023/09/08 08:31:59;;;;;;;6.13;5.63;;;;;;;21.50;81.32;100881.00;4993245;28;20211;-77
2023/09/08 08:34:27;;;;;;;6.40;5.90;;;;;;;21.46;85.10;100818.38;4992843;28;20211;-77
2023/09/08 08:36:54;;;;;;;6.23;5.83;;;;;;;21.56;83.28;100827.50;4993142;28;20208;-77
2023/09/08 08:39:20;;;;;;;6.70;6.13;;;;;;;21.59;83.04;100830.84;4992614;28;20666;-78
2023/09/08 08:41:47;;;;;;;6.87;6.30;;;;;;;21.71;81.96;100853.19;4994096;28;20214;-78
2023/09/08 08:44:16;;;;;;;6.90;5.90;;;;;;;21.76;81.98;100850.25;4996555;28;20242;-77
2023/09/08 08:46:43;;;;;;;5.87;5.50;;;;;;;21.95;78.03;100909.34;4997096;28;20218;-78
2023/09/08 08:49:12;;;;;;;5.67;5.27;;;;;;;22.15;75.72;100979.97;4996969;28;20203;-77
2023/09/08 08:51:40;;;;;;;5.90;5.50;;;;;;;22.27;78.45;100961.59;4997225;28;20219;-77
2023/09/08 08:54:07;;;;;;;6.50;6.00;;;;;;;22.30;79.83;100935.69;4996781;28;20230;-77
2023/09/08 08:56:36;;;;;;;5.53;5.03;;;;;;;22.33;74.97;100963.91;4997278;28;20238;-78
2023/09/08 08:59:04;;;;;;;5.83;5.43;;;;;;;22.44;77.82;100961.47;4996588;28;20207;-77
2023/09/08 09:01:32;;;;;;;5.37;4.97;;;;;;;22.56;74.82;100999.78;5000899;28;20230;-77
2023/09/08 09:03:59;;;;;;;6.20;5.70;;;;;;;22.75;75.60;101024.28;4999193;28;20223;-77
2023/09/08 09:06:25;;;;;;;5.77;5.27;;;;;;;22.76;74.63;100978.13;4996406;28;20584;-77
2023/09/08 09:08:53;;;;;;;5.70;5.30;;;;;;;22.83;75.19;100999.03;4996705;28;20212;-79
2023/09/08 09:11:19;;;;;;;6.03;5.63;;;;;;;22.92;77.88;100959.38;5000274;28;20215;-78
2023/09/08 09:13:46;;;;;;;6.33;5.73;;;;;;;23.02;77.46;100934.84;4999204;28;20234;-78
2023/09/08 09:16:12;;;;;;;6.03;5.40;;;;;;;23.06;76.48;100952.38;4310160;28;10000713;-78
2023/09/08 09:18:56;;;;;;;6.33;5.93;;;;;;;23.15;77.98;100946.44;4983917;28;20220;-79
2023/09/08 09:21:23;;;;;;;5.27;4.87;;;;;;;23.11;71.82;101008.84;4997460;28;20207;-78
2023/09/08 09:23:50;;;;;;;8.03;6.03;;;;;;;23.24;75.54;101009.78;4995695;28;20235;-79
2023/09/08 09:26:25;;;;;;;5.57;5.17;;;;;;;23.30;73.89;101001.41;4996307;28;20262;-79
2023/09/08 09:28:53;;;;;;;6.40;5.80;;;;;;;23.40;76.93;101001.69;5006516;28;20225;-80
2023/09/08 09:31:24;;;;;;;5.60;5.20;;;;;;;23.50;73.42;101040.13;5016752;28;20204;-81
2023/09/08 09:34:02;;;;;;;5.17;4.87;;;;;;;23.57;70.91;101072.59;5016854;28;20228;-80
2023/09/08 09:36:29;;;;;;;6.13;5.67;;;;;;;23.69;71.15;101090.44;5010341;28;20283;-79
2023/09/08 09:38:59;;;;;;;5.10;4.80;;;;;;;23.75;71.63;101105.19;5010156;28;20222;-79
2023/09/08 09:41:28;;;;;;;5.00;4.57;;;;;;;23.72;68.74;101169.38;4998179;28;20212;-79
2023/09/08 09:43:55;;;;;;;4.90;4.50;;;;;;;23.81;65.71;101208.81;4995371;28;20270;-79
2023/09/08 09:46:22;;;;;;;5.30;4.90;;;;;;;23.92;63.11;101309.47;4997919;28;20211;-79
2023/09/08 09:48:52;;;;;;;5.10;4.70;;;;;;;24.10;58.41;101424.88;4997429;28;20215;-79
2023/09/08 09:51:20;;;;;;;4.70;4.40;;;;;;;24.17;61.59;101399.53;4997912;28;20678;-78
2023/09/08 09:53:47;;;;;;;5.47;5.03;;;;;;;24.29;62.72;101392.59;4996165;28;20779;-79
2023/09/08 09:56:16;;;;;;;6.50;4.87;;;;;;;24.42;60.09;101440.72;4989467;28;20204;-79
2023/09/08 09:58:45;;;;;;;4.90;4.50;;;;;;;24.56;59.02;101456.81;4995649;28;20291;-80
2023/09/08 10:01:12;;;;;;;4.47;4.10;;;;;;;24.52;59.49;101460.63;4997594;28;20206;-80
2023/09/08 10:03:39;;;;;;;4.90;4.60;;;;;;;24.62;61.51;101469.78;5003022;28;20234;-79
2023/09/08 10:06:06;;;;;;;4.83;4.40;;;;;;;24.87;55.28;101557.22;4980105;28;20218;-80
2023/09/08 10:08:36;;;;;;;4.90;4.50;;;;;;;24.95;58.04;101492.66;4977527;28;20209;-81
2023/09/08 10:11:07;;;;;;;4.77;4.37;;;;;;;24.98;56.64;101498.66;4979706;28;20206;-80
2023/09/08 10:13:40;;;;;;;4.73;4.33;;;;;;;24.96;59.55;101484.53;4996558;28;20232;-80
2023/09/08 10:16:09;;;;;;;5.10;4.17;;;;;;;25.06;61.25;101450.09;4996479;28;20249;-80
2023/09/08 10:18:36;;;;;;;4.70;4.40;;;;;;;25.16;60.21;101411.13;4996036;28;20686;-79
2023/09/08 10:21:05;;;;;;;4.90;4.60;;;;;;;25.26;58.58;101421.25;4997021;28;20305;-78
2023/09/08 10:23:37;;;;;;;5.60;4.37;;;;;;;25.27;55.10;101484.44;4996684;28;20231;-79
2023/09/08 10:26:06;;;;;;;4.30;4.10;;;;;;;25.31;58.73;101467.25;4997634;28;20697;-80
2023/09/08 10:28:33;;;;;;;4.77;4.37;;;;;;;25.33;56.80;101482.25;4996884;28;20213;-79
2023/09/08 10:31:00;;;;;;;4.70;4.40;;;;;;;25.42;55.50;101520.03;4994987;28;20224;-79
2023/09/08 10:33:29;;;;;;;5.00;4.50;;;;;;;25.47;55.49;101518.78;4989359;28;20242;-79
2023/09/08 10:35:56;;;;;;;4.90;4.50;;;;;;;25.52;52.98;101547.88;4996073;28;20218;-79
2023/09/08 10:38:24;;;;;;;5.10;4.70;;;;;;;25.58;53.59;101557.34;4997425;28;20640;-80
2023/09/08 10:40:51;;;;;;;4.63;4.23;;;;;;;25.79;51.57;101605.88;4996101;28;20234;-80
2023/09/08 10:43:19;;;;;;;4.70;4.30;;;;;;;25.91;53.55;101589.94;4987192;28;20613;-80
2023/09/08 10:45:46;;;;;;;5.13;4.77;;;;;;;25.94;55.53;101557.63;4997097;28;20224;-80
2023/09/08 10:48:15;;;;;;;5.70;4.50;;;;;;;25.98;53.62;101552.06;4995529;28;20237;-81
2023/09/08 10:50:43;;;;;;;5.47;4.03;;;;;;;26.04;50.79;101638.16;4995024;28;20274;-81
2023/09/08 10:53:17;;;;;;;3.97;3.67;;;;;;;26.15;50.33;101642.81;4994838;28;20667;-81
2023/09/08 10:55:47;;;;;;;4.13;3.93;;;;;;;26.31;49.46;101690.84;4996101;28;20652;-80
2023/09/08 10:58:20;;;;;;;3.77;3.57;;;;;;;26.43;51.96;101652.56;4996131;28;20687;-82
2023/09/08 11:00:48;;;;;;;4.90;4.50;;;;;;;26.57;51.94;101666.84;4998393;28;20224;-81
2023/09/08 11:03:27;;;;;;;5.23;4.93;;;;;;;26.66;51.40;101652.84;5002157;28;20224;-80
2023/09/08 11:05:57;;;;;;;4.80;4.43;;;;;;;26.66;51.91;101634.09;4994443;28;20246;-80
2023/09/08 11:08:23;;;;;;;7.13;3.87;;;;;;;26.69;51.40;101632.06;4993625;28;20206;-81
2023/09/08 11:10:50;;;;;;;4.70;4.40;;;;;;;26.92;53.09;101600.19;4994403;28;20207;-81
2023/09/08 11:13:17;;;;;;;4.53;4.13;;;;;;;27.02;50.62;101627.19;4997753;28;20266;-80
2023/09/08 11:15:43;;;;;;;4.47;4.17;;;;;;;27.18;50.56;101648.44;4997436;28;20222;-80
2023/09/08 11:18:10;;;;;;;4.40;4.03;;;;;;;27.17;46.99;101673.50;4995772;28;20208;-80
2023/09/08 11:20:36;;;;;;;4.03;3.83;;;;;;;27.52;46.85;101756.91;4996177;28;20222;-80
2023/09/08 11:23:05;;;;;;;4.20;3.93;;;;;;;27.81;48.76;101746.81;4998021;28;20231;-80
2023/09/08 11:25:34;;;;;;;4.43;4.00;;;;;;;27.97;48.66;101735.00;4997861;28;20204;-81